createdAt,value
2018-09-12T00:00:27.555Z,15.49
2018-09-12T00:01:27.617Z,15.46
2018-09-12T00:02:27.676Z,15.41
2018-09-12T00:03:27.738Z,15.35
2018-09-12T00:04:27.799Z,15.40
2018-09-12T00:05:27.858Z,15.23
2018-09-12T00:06:27.919Z,15.38
2018-09-12T00:07:27.982Z,15.33
2018-09-12T00:08:28.041Z,15.40
2018-09-12T00:09:28.105Z,15.40
2018-09-12T00:10:28.163Z,15.35
2018-09-12T00:11:28.224Z,15.27
2018-09-12T00:12:28.291Z,15.30
2018-09-12T00:13:28.345Z,15.18
2018-09-12T00:14:28.409Z,15.22
2018-09-12T00:15:28.468Z,15.18
2018-09-12T00:16:28.528Z,15.20
2018-09-12T00:17:28.588Z,15.11
2018-09-12T00:18:28.649Z,15.05
2018-09-12T00:19:28.710Z,15.07
2018-09-12T00:20:28.771Z,15.12
2018-09-12T00:21:28.831Z,15.05
2018-09-12T00:22:28.891Z,15.25
2018-09-12T00:23:29.103Z,15.20
2018-09-12T00:24:29.014Z,15.28
2018-09-12T00:25:29.074Z,15.20
2018-09-12T00:26:29.141Z,15.15
2018-09-12T00:27:29.196Z,15.11
2018-09-12T00:29:02.468Z,15.09
2018-09-12T00:29:29.317Z,15.13
2018-09-12T00:31:29.844Z,15.03
2018-09-12T00:32:29.499Z,15.04
2018-09-12T00:33:29.560Z,15.09
2018-09-12T00:34:29.621Z,14.97
2018-09-12T00:35:29.883Z,14.97
2018-09-12T00:36:29.744Z,14.95
2018-09-12T00:37:29.802Z,15.00
2018-09-12T00:38:30.268Z,14.91
2018-09-12T00:39:29.924Z,14.87
2018-09-12T00:40:29.985Z,14.90
2018-09-12T00:41:30.045Z,14.95
2018-09-12T00:42:30.106Z,14.93
2018-09-12T00:43:30.166Z,14.94
2018-09-12T00:44:30.228Z,14.82
2018-09-12T00:45:30.288Z,14.78
2018-09-12T00:46:30.353Z,14.75
2018-09-12T00:47:30.411Z,14.75
2018-09-12T00:48:30.469Z,14.75
2018-09-12T00:49:30.530Z,14.78
2018-09-12T00:50:30.594Z,14.79
2018-09-12T00:51:30.651Z,14.79
2018-09-12T00:52:30.712Z,14.83
2018-09-12T00:53:30.774Z,14.78
2018-09-12T00:54:30.833Z,14.78
2018-09-12T00:55:30.893Z,14.85
2018-09-12T00:56:30.955Z,14.80
2018-09-12T00:57:31.018Z,14.82
2018-09-12T00:58:31.076Z,14.80
2018-09-12T00:59:31.137Z,14.78
2018-09-12T01:00:31.197Z,14.78
2018-09-12T01:01:31.256Z,14.80
2018-09-12T01:02:31.316Z,14.75
2018-09-12T01:03:31.377Z,14.83
2018-09-12T01:04:31.440Z,14.67
2018-09-12T01:05:31.518Z,14.57
2018-09-12T01:06:31.559Z,14.57
2018-09-12T01:07:31.620Z,14.61
2018-09-12T01:08:31.681Z,14.56
2018-09-12T01:09:31.741Z,14.60
2018-09-12T01:10:31.802Z,14.48
2018-09-12T01:11:31.864Z,14.49
2018-09-12T01:12:31.923Z,14.46
2018-09-12T01:13:31.982Z,14.49
2018-09-12T01:14:32.043Z,14.54
2018-09-12T01:15:32.104Z,14.54
2018-09-12T01:16:32.165Z,14.54
2018-09-12T01:17:32.223Z,14.63
2018-09-12T01:18:32.283Z,14.54
2018-09-12T01:19:32.345Z,14.56
2018-09-12T01:20:32.406Z,14.59
2018-09-12T01:21:32.464Z,14.56
2018-09-12T01:22:32.525Z,14.57
2018-09-12T01:23:32.588Z,14.61
2018-09-12T01:24:32.647Z,14.59
2018-09-12T01:25:32.707Z,14.57
2018-09-12T01:26:32.769Z,14.56
2018-09-12T01:27:32.828Z,14.45
2018-09-12T01:28:32.891Z,14.35
2018-09-12T01:29:32.951Z,14.35
2018-09-12T01:30:33.011Z,14.48
2018-09-12T01:31:33.153Z,14.41
2018-09-12T01:32:33.132Z,14.44
2018-09-12T01:33:33.225Z,14.38
2018-09-12T01:34:33.256Z,14.29
2018-09-12T01:35:33.319Z,14.52
2018-09-12T01:36:33.373Z,14.57
2018-09-12T01:37:33.433Z,14.49
2018-09-12T01:38:33.494Z,14.44
2018-09-12T01:39:33.554Z,14.35
2018-09-12T01:40:33.615Z,14.44
2018-09-12T01:41:33.674Z,14.42
2018-09-12T01:42:33.736Z,14.36
2018-09-12T01:43:33.795Z,14.38
2018-09-12T01:44:34.107Z,14.23
2018-09-12T01:45:33.916Z,14.34
2018-09-12T01:46:33.976Z,14.38
2018-09-12T01:47:34.039Z,14.38
2018-09-12T01:48:34.098Z,14.34
2018-09-12T01:49:34.158Z,14.26
2018-09-12T01:50:34.220Z,14.27
2018-09-12T01:51:34.279Z,14.24
2018-09-12T01:52:34.340Z,14.13
2018-09-12T01:53:34.399Z,14.21
2018-09-12T01:54:34.460Z,14.21
2018-09-12T01:55:34.521Z,14.24
2018-09-12T01:56:34.581Z,14.16
2018-09-12T01:57:34.640Z,14.08
2018-09-12T01:58:34.703Z,14.08
2018-09-12T01:59:34.762Z,14.05
2018-09-12T02:00:34.822Z,14.13
2018-09-12T02:01:34.884Z,14.06
2018-09-12T02:02:34.943Z,14.02
2018-09-12T02:04:35.315Z,13.98
2018-09-12T02:05:35.123Z,14.08
2018-09-12T02:06:35.184Z,13.99
2018-09-12T02:07:35.243Z,14.01
2018-09-12T02:08:35.304Z,13.86
2018-09-12T02:09:35.364Z,13.87
2018-09-12T02:10:35.423Z,13.79
2018-09-12T02:11:35.486Z,13.80
2018-09-12T02:12:35.544Z,13.80
2018-09-12T02:14:35.867Z,13.99
2018-09-12T02:15:35.726Z,13.90
2018-09-12T02:16:35.786Z,13.83
2018-09-12T02:18:35.905Z,13.87
2018-09-12T02:19:35.965Z,13.88
2018-09-12T02:20:36.025Z,14.01
2018-09-12T02:21:36.086Z,13.96
2018-09-12T02:22:36.146Z,13.93
2018-09-12T02:23:36.208Z,13.88
2018-09-12T02:24:36.268Z,13.84
2018-09-12T02:25:36.328Z,13.91
2018-09-12T02:26:36.388Z,13.93
2018-09-12T02:27:36.448Z,13.87
2018-09-12T02:28:36.508Z,13.93
2018-09-12T02:29:36.567Z,13.84
2018-09-12T02:30:36.631Z,13.84
2018-09-12T02:31:36.689Z,13.69
2018-09-12T02:32:36.749Z,13.75
2018-09-12T02:33:36.807Z,13.81
2018-09-12T02:34:36.869Z,13.84
2018-09-12T02:35:36.929Z,13.83
2018-09-12T02:36:36.989Z,13.79
2018-09-12T02:37:37.049Z,13.80
2018-09-12T02:38:37.111Z,13.69
2018-09-12T02:39:37.170Z,13.65
2018-09-12T02:40:37.231Z,13.71
2018-09-12T02:41:37.292Z,13.72
2018-09-12T02:42:37.350Z,13.73
2018-09-12T02:43:37.410Z,13.65
2018-09-12T02:44:37.471Z,13.69
2018-09-12T02:45:37.531Z,13.76
2018-09-12T02:46:37.592Z,13.76
2018-09-12T02:47:37.651Z,13.63
2018-09-12T02:48:37.711Z,13.62
2018-09-12T02:49:37.770Z,13.61
2018-09-12T02:50:37.830Z,13.62
2018-09-12T02:51:37.891Z,13.61
2018-09-12T02:52:37.951Z,13.50
2018-09-12T02:53:38.011Z,13.57
2018-09-12T02:54:38.273Z,13.55
2018-09-12T02:55:38.134Z,13.51
2018-09-12T02:56:38.192Z,13.57
2018-09-12T02:57:38.251Z,13.54
2018-09-12T02:58:38.311Z,13.62
2018-09-12T02:59:38.376Z,13.48
2018-09-12T03:00:38.433Z,13.44
2018-09-12T03:01:38.492Z,13.53
2018-09-12T03:02:38.553Z,13.51
2018-09-12T03:03:38.612Z,13.54
2018-09-12T03:04:38.671Z,13.43
2018-09-12T03:05:38.733Z,13.47
2018-09-12T03:06:38.792Z,13.53
2018-09-12T03:07:38.851Z,13.55
2018-09-12T03:08:38.912Z,13.50
2018-09-12T03:09:38.973Z,13.50
2018-09-12T03:10:39.066Z,13.43
2018-09-12T03:11:39.733Z,13.43
2018-09-12T03:12:39.154Z,13.41
2018-09-12T03:13:39.212Z,13.44
2018-09-12T03:14:39.314Z,13.41
2018-09-12T03:15:39.333Z,13.32
2018-09-12T03:16:39.392Z,13.32
2018-09-12T03:17:39.451Z,13.29
2018-09-12T03:18:39.514Z,13.27
2018-09-12T03:19:39.580Z,13.35
2018-09-12T03:20:39.763Z,13.32
2018-09-12T03:21:39.693Z,13.35
2018-09-12T03:22:39.754Z,13.38
2018-09-12T03:23:39.813Z,13.32
2018-09-12T03:24:39.872Z,13.32
2018-09-12T03:25:39.932Z,13.22
2018-09-12T03:26:39.992Z,13.21
2018-09-12T03:27:41.037Z,13.14
2018-09-12T03:28:40.826Z,13.13
2018-09-12T03:29:40.170Z,13.16
2018-09-12T03:30:40.230Z,13.07
2018-09-12T03:31:40.308Z,13.04
2018-09-12T03:32:40.352Z,13.01
2018-09-12T03:33:40.413Z,13.13
2018-09-12T03:34:40.470Z,13.07
2018-09-12T03:35:40.532Z,13.07
2018-09-12T03:36:40.592Z,13.04
2018-09-12T03:37:40.652Z,13.07
2018-09-12T03:38:40.712Z,12.96
2018-09-12T03:39:40.771Z,12.94
2018-09-12T03:40:40.833Z,13.03
2018-09-12T03:41:40.891Z,13.03
2018-09-12T03:42:40.950Z,12.94
2018-09-12T03:43:41.013Z,13.01
2018-09-12T03:44:41.070Z,12.99
2018-09-12T03:45:41.129Z,13.09
2018-09-12T03:46:41.190Z,13.16
2018-09-12T03:47:41.251Z,13.10
2018-09-12T03:48:41.310Z,13.12
2018-09-12T03:49:41.369Z,13.12
2018-09-12T03:50:41.430Z,12.99
2018-09-12T03:51:41.493Z,12.92
2018-09-12T03:53:41.608Z,12.73
2018-09-12T03:54:41.762Z,12.70
2018-09-12T03:55:41.783Z,12.77
2018-09-12T03:56:41.832Z,12.71
2018-09-12T03:57:41.889Z,12.69
2018-09-12T03:58:41.917Z,12.80
2018-09-12T03:59:42.405Z,12.76
2018-09-12T04:00:42.058Z,12.70
2018-09-12T04:01:42.088Z,12.98
2018-09-12T04:02:42.219Z,12.80
2018-09-12T04:03:42.209Z,12.94
2018-09-12T04:04:42.265Z,12.94
2018-09-12T04:05:42.324Z,13.01
2018-09-12T04:06:42.385Z,12.99
2018-09-12T04:07:42.445Z,13.04
2018-09-12T04:08:42.506Z,12.94
2018-09-12T04:09:42.563Z,12.96
2018-09-12T04:10:42.623Z,12.89
2018-09-12T04:11:42.684Z,12.96
2018-09-12T04:12:42.744Z,13.03
2018-09-12T04:13:42.838Z,13.07
2018-09-12T04:14:42.863Z,13.03
2018-09-12T04:15:42.923Z,13.03
2018-09-12T04:16:43.023Z,13.03
2018-09-12T04:17:43.042Z,12.96
2018-09-12T04:18:43.103Z,13.10
2018-09-12T04:19:43.162Z,13.03
2018-09-12T04:20:43.222Z,13.09
2018-09-12T04:21:43.280Z,13.03
2018-09-12T04:22:43.341Z,13.06
2018-09-12T04:23:43.401Z,12.94
2018-09-12T04:24:43.462Z,12.88
2018-09-12T04:25:43.519Z,12.92
2018-09-12T04:26:43.580Z,12.88
2018-09-12T04:27:43.639Z,12.88
2018-09-12T04:28:43.705Z,12.88
2018-09-12T04:29:43.758Z,12.94
2018-09-12T04:30:43.818Z,12.94
2018-09-12T04:31:44.081Z,12.87
2018-09-12T04:32:43.938Z,12.76
2018-09-12T04:33:43.999Z,12.84
2018-09-12T04:34:44.059Z,12.76
2018-09-12T04:35:44.116Z,12.77
2018-09-12T04:36:44.177Z,12.69
2018-09-12T04:37:44.234Z,12.66
2018-09-12T04:38:44.296Z,12.67
2018-09-12T04:39:44.356Z,12.81
2018-09-12T04:40:44.417Z,12.79
2018-09-12T04:41:45.093Z,12.79
2018-09-12T04:42:45.393Z,12.85
2018-09-12T04:43:45.332Z,12.94
2018-09-12T04:44:45.368Z,12.99
2018-09-12T04:45:45.708Z,12.80
2018-09-12T04:46:45.413Z,12.81
2018-09-12T04:47:45.417Z,12.81
2018-09-12T04:48:44.892Z,12.77
2018-09-12T04:49:44.952Z,12.81
2018-09-12T04:50:45.012Z,12.79
2018-09-12T04:51:45.071Z,12.80
2018-09-12T04:52:45.131Z,12.76
2018-09-12T04:53:45.189Z,12.71
2018-09-12T04:54:45.249Z,12.66
2018-09-12T04:55:45.310Z,12.71
2018-09-12T04:56:45.368Z,12.69
2018-09-12T04:57:45.428Z,12.76
2018-09-12T04:58:45.496Z,12.66
2018-09-12T04:59:45.593Z,12.59
2018-09-12T05:00:45.607Z,12.58
2018-09-12T05:01:45.667Z,12.67
2018-09-12T05:02:45.726Z,12.62
2018-09-12T05:03:45.788Z,12.62
2018-09-12T05:04:45.902Z,12.63
2018-09-12T05:05:45.933Z,12.63
2018-09-12T05:06:46.005Z,12.54
2018-09-12T05:07:46.036Z,12.62
2018-09-12T05:08:46.342Z,12.63
2018-09-12T05:09:46.164Z,12.74
2018-09-12T05:10:46.311Z,12.61
2018-09-12T05:11:46.368Z,12.69
2018-09-12T05:12:46.448Z,12.67
2018-09-12T05:13:46.515Z,12.62
2018-09-12T05:14:46.564Z,12.69
2018-09-12T05:15:47.247Z,12.71
2018-09-12T05:16:46.714Z,12.67
2018-09-12T05:17:46.665Z,12.66
2018-09-12T05:18:46.735Z,12.58
2018-09-12T05:19:46.850Z,12.71
2018-09-12T05:20:47.263Z,12.62
2018-09-12T05:21:47.486Z,12.66
2018-09-12T05:22:46.992Z,12.58
2018-09-12T05:23:47.097Z,12.54
2018-09-12T05:24:47.450Z,12.63
2018-09-12T05:25:47.154Z,12.63
2018-09-12T05:26:47.264Z,12.56
2018-09-12T05:27:47.237Z,12.58
2018-09-12T05:28:47.666Z,12.55
2018-09-12T05:29:47.390Z,12.55
2018-09-12T05:30:47.446Z,12.67
2018-09-12T05:31:47.784Z,12.73
2018-09-12T05:32:47.539Z,12.62
2018-09-12T05:33:47.617Z,12.67
2018-09-12T05:34:47.642Z,12.76
2018-09-12T05:35:47.730Z,12.66
2018-09-12T05:36:47.856Z,12.63
2018-09-12T05:37:47.858Z,12.67
2018-09-12T05:38:47.921Z,12.70
2018-09-12T05:39:47.974Z,12.74
2018-09-12T05:40:48.028Z,12.70
2018-09-12T05:41:48.050Z,12.79
2018-09-12T05:42:48.110Z,12.76
2018-09-12T05:43:48.197Z,12.63
2018-09-12T05:44:48.259Z,12.70
2018-09-12T05:45:48.288Z,12.62
2018-09-12T05:46:48.453Z,12.74
2018-09-12T05:47:48.447Z,12.70
2018-09-12T05:48:48.519Z,12.70
2018-09-12T05:49:48.576Z,12.73
2018-09-12T05:50:48.633Z,12.71
2018-09-12T05:51:48.686Z,12.85
2018-09-12T05:52:48.746Z,12.81
2018-09-12T05:53:48.804Z,12.84
2018-09-12T05:54:48.883Z,12.81
2018-09-12T05:55:48.911Z,12.89
2018-09-12T05:56:49.050Z,12.88
2018-09-12T05:57:49.027Z,12.88
2018-09-12T05:58:49.096Z,12.89
2018-09-12T05:59:49.692Z,12.95
2018-09-12T06:00:49.213Z,13.07
2018-09-12T06:01:49.869Z,12.96
2018-09-12T06:02:49.304Z,13.04
2018-09-12T06:03:49.396Z,12.95
2018-09-12T06:04:49.848Z,13.14
2018-09-12T06:05:49.534Z,13.13
2018-09-12T06:06:49.710Z,13.28
2018-09-12T06:07:49.634Z,13.29
2018-09-12T06:08:49.698Z,13.32
2018-09-12T06:09:49.761Z,13.32
2018-09-12T06:10:49.813Z,13.48
2018-09-12T06:11:49.854Z,13.39
2018-09-12T06:12:50.291Z,13.41
2018-09-12T06:13:50.191Z,13.28
2018-09-12T06:14:50.069Z,13.22
2018-09-12T06:15:50.116Z,13.17
2018-09-12T06:16:50.178Z,13.25
2018-09-12T06:17:50.204Z,13.29
2018-09-12T06:18:50.264Z,13.35
2018-09-12T06:19:50.323Z,13.41
2018-09-12T06:20:50.381Z,13.48
2018-09-12T06:21:50.441Z,13.54
2018-09-12T06:23:50.612Z,13.41
2018-09-12T06:24:50.626Z,13.48
2018-09-12T06:25:51.084Z,13.53
2018-09-12T06:26:50.780Z,13.62
2018-09-12T06:27:50.838Z,13.72
2018-09-12T06:28:50.893Z,13.66
2018-09-12T06:29:50.924Z,13.72
2018-09-12T06:30:50.991Z,13.81
2018-09-12T06:31:51.041Z,13.75
2018-09-12T06:32:51.101Z,13.81
2018-09-12T06:33:51.162Z,13.86
2018-09-12T06:34:51.221Z,13.80
2018-09-12T06:35:51.281Z,13.83
2018-09-12T06:36:51.342Z,13.90
2018-09-12T06:37:51.461Z,14.02
2018-09-12T06:38:51.465Z,14.01
2018-09-12T06:39:51.523Z,13.98
2018-09-12T06:40:51.582Z,14.09
2018-09-12T06:41:51.643Z,14.09
2018-09-12T06:42:51.710Z,14.09
2018-09-12T06:43:51.764Z,14.24
2018-09-12T06:44:51.824Z,14.27
2018-09-12T06:45:51.889Z,14.35
2018-09-12T06:46:51.943Z,14.30
2018-09-12T06:47:52.005Z,14.41
2018-09-12T06:48:52.066Z,14.48
2018-09-12T06:49:52.126Z,14.52
2018-09-12T06:50:52.217Z,14.49
2018-09-12T06:51:52.300Z,14.54
2018-09-12T06:52:52.311Z,14.61
2018-09-12T06:53:52.367Z,14.63
2018-09-12T06:54:52.430Z,14.64
2018-09-12T06:55:52.489Z,14.74
2018-09-12T06:56:52.563Z,14.78
2018-09-12T06:57:52.609Z,14.83
2018-09-12T06:58:52.689Z,14.82
2018-09-12T06:59:52.733Z,14.83
2018-09-12T07:00:52.841Z,14.94
2018-09-12T07:01:52.852Z,14.91
2018-09-12T07:02:52.917Z,15.01
2018-09-12T07:03:52.979Z,15.00
2018-09-12T07:04:53.442Z,15.09
2018-09-12T07:05:53.647Z,15.11
2018-09-12T07:06:53.156Z,15.16
2018-09-12T07:07:53.424Z,15.33
2018-09-12T07:08:53.648Z,15.34
2018-09-12T07:09:53.337Z,15.33
2018-09-12T07:10:53.438Z,15.48
2018-09-12T07:11:53.492Z,15.46
2018-09-12T07:12:53.557Z,15.53
2018-09-12T07:13:53.581Z,15.58
2018-09-12T07:14:53.642Z,15.53
2018-09-12T07:15:53.704Z,15.60
2018-09-12T07:16:53.764Z,15.74
2018-09-12T07:17:53.828Z,15.55
2018-09-12T07:18:53.887Z,15.62
2018-09-12T07:19:53.980Z,15.66
2018-09-12T07:20:54.040Z,15.78
2018-09-12T07:21:54.102Z,15.59
2018-09-12T07:22:54.161Z,15.74
2018-09-12T07:23:54.192Z,15.73
2018-09-12T07:24:54.255Z,15.77
2018-09-12T07:25:54.313Z,15.77
2018-09-12T07:26:54.408Z,15.88
2018-09-12T07:27:54.436Z,15.86
2018-09-12T07:28:54.497Z,15.95
2018-09-12T07:29:54.638Z,16.03
2018-09-12T07:30:54.619Z,16.04
2018-09-12T07:31:55.303Z,16.14
2018-09-12T07:32:54.741Z,16.23
2018-09-12T07:33:54.827Z,16.26
2018-09-12T07:34:55.451Z,16.26
2018-09-12T07:35:55.428Z,16.34
2018-09-12T07:36:54.986Z,16.36
2018-09-12T07:37:55.047Z,16.34
2018-09-12T07:38:55.111Z,16.40
2018-09-12T07:39:55.176Z,16.45
2018-09-12T07:40:55.365Z,16.45
2018-09-12T07:41:55.294Z,16.41
2018-09-12T07:42:55.354Z,16.51
2018-09-12T07:43:55.415Z,16.59
2018-09-12T07:44:55.478Z,16.59
2018-09-12T07:45:55.540Z,16.63
2018-09-12T07:46:55.601Z,16.66
2018-09-12T07:47:55.665Z,16.69
2018-09-12T07:48:55.734Z,16.84
2018-09-12T07:49:55.785Z,16.85
2018-09-12T07:50:55.847Z,16.92
2018-09-12T07:51:55.911Z,16.91
2018-09-12T07:52:55.972Z,17.03
2018-09-12T07:53:56.033Z,17.09
2018-09-12T07:54:56.095Z,17.09
2018-09-12T07:55:56.217Z,17.17
2018-09-12T07:56:56.219Z,17.22
2018-09-12T07:57:56.318Z,17.32
2018-09-12T07:58:56.342Z,17.36
2018-09-12T07:59:56.807Z,17.38
2018-09-12T08:00:56.466Z,17.40
2018-09-12T08:01:56.528Z,17.54
2018-09-12T08:02:56.592Z,17.51
2018-09-12T08:03:56.652Z,17.53
2018-09-12T08:04:56.743Z,17.53
2018-09-12T08:05:56.777Z,17.54
2018-09-12T08:06:56.839Z,17.53
2018-09-12T08:07:56.899Z,17.57
2018-09-12T08:08:56.963Z,17.60
2018-09-12T08:09:57.024Z,17.77
2018-09-12T08:10:57.090Z,17.77
2018-09-12T08:11:57.150Z,17.92
2018-09-12T08:12:57.856Z,17.91
2018-09-12T08:13:57.273Z,18.07
2018-09-12T08:14:57.336Z,18.17
2018-09-12T08:15:57.398Z,18.32
2018-09-12T08:16:57.490Z,18.32
2018-09-12T08:17:57.522Z,18.35
2018-09-12T08:18:57.644Z,18.32
2018-09-12T08:19:57.646Z,18.35
2018-09-12T08:20:57.710Z,18.51
2018-09-12T08:21:57.772Z,18.56
2018-09-12T08:23:57.898Z,18.75
2018-09-12T08:24:57.959Z,18.71
2018-09-12T08:25:58.020Z,18.83
2018-09-12T08:26:58.088Z,18.75
2018-09-12T08:27:58.171Z,18.84
2018-09-12T08:28:58.857Z,18.84
2018-09-12T08:29:58.798Z,18.93
2018-09-12T08:30:58.335Z,18.86
2018-09-12T08:31:58.399Z,19.02
2018-09-12T08:32:58.461Z,19.17
2018-09-12T08:33:58.524Z,19.25
2018-09-12T08:34:58.584Z,19.30
2018-09-12T08:35:58.648Z,19.34
2018-09-12T08:36:58.712Z,19.38
2018-09-12T08:37:58.776Z,19.45
2018-09-12T08:38:58.837Z,19.47
2018-09-12T08:39:58.899Z,19.57
2018-09-12T08:40:58.963Z,19.65
2018-09-12T08:41:59.429Z,19.80
2018-09-12T08:42:59.186Z,19.79
2018-09-12T08:43:59.157Z,19.97
2018-09-12T08:44:59.261Z,19.94
2018-09-12T08:45:59.276Z,20.02
2018-09-12T08:46:59.343Z,20.25
2018-09-12T08:47:59.403Z,20.30
2018-09-12T08:48:59.466Z,20.38
2018-09-12T08:49:59.532Z,20.42
2018-09-12T08:50:59.592Z,20.56
2018-09-12T08:51:59.656Z,20.63
2018-09-12T08:52:59.774Z,20.79
2018-09-12T08:53:59.781Z,20.79
2018-09-12T08:54:59.845Z,20.90
2018-09-12T08:55:59.916Z,20.97
2018-09-12T08:56:59.975Z,21.11
2018-09-12T08:58:00.036Z,21.30
2018-09-12T08:59:00.099Z,21.38
2018-09-12T09:00:00.163Z,21.40
2018-09-12T09:01:00.231Z,21.40
2018-09-12T09:02:00.289Z,21.61
2018-09-12T09:03:00.353Z,21.64
2018-09-12T09:04:00.470Z,21.67
2018-09-12T09:05:01.104Z,21.77
2018-09-12T09:06:00.544Z,21.71
2018-09-12T09:07:00.607Z,21.93
2018-09-12T09:08:00.672Z,22.02
2018-09-12T09:09:00.736Z,22.12
2018-09-12T09:10:00.799Z,22.19
2018-09-12T09:11:00.863Z,22.36
2018-09-12T09:12:00.928Z,22.46
2018-09-12T09:13:00.992Z,22.66
2018-09-12T09:14:01.056Z,22.74
2018-09-12T09:15:01.120Z,22.96
2018-09-12T09:16:01.183Z,23.09
2018-09-12T09:17:01.249Z,23.12
2018-09-12T09:18:01.311Z,23.29
2018-09-12T09:19:01.378Z,23.39
2018-09-12T09:20:01.441Z,23.62
2018-09-12T09:21:01.505Z,23.64
2018-09-12T09:22:01.569Z,23.77
2018-09-12T09:23:01.634Z,23.82
2018-09-12T09:24:01.700Z,23.92
2018-09-12T09:25:01.764Z,24.00
2018-09-12T09:26:01.827Z,23.89
2018-09-12T09:27:01.892Z,23.89
2018-09-12T09:28:01.957Z,23.97
2018-09-12T09:29:02.022Z,23.99
2018-09-12T09:30:02.086Z,24.15
2018-09-12T09:31:02.155Z,24.29
2018-09-12T09:32:02.216Z,24.31
2018-09-12T09:33:02.281Z,24.49
2018-09-12T09:34:02.345Z,24.63
2018-09-12T09:35:02.469Z,24.80
2018-09-12T09:36:02.482Z,24.93
2018-09-12T09:37:02.541Z,25.11
2018-09-12T09:38:02.604Z,25.08
2018-09-12T09:39:02.671Z,25.22
2018-09-12T09:40:02.739Z,25.16
2018-09-12T09:41:02.836Z,25.26
2018-09-12T09:42:02.867Z,25.41
2018-09-12T09:43:02.931Z,25.41
2018-09-12T09:44:03.074Z,25.48
2018-09-12T09:45:03.063Z,25.59
2018-09-12T09:46:03.126Z,25.63
2018-09-12T09:47:03.194Z,25.59
2018-09-12T09:48:03.331Z,25.74
2018-09-12T09:49:03.575Z,25.79
2018-09-12T09:50:03.389Z,25.90
2018-09-12T09:51:03.455Z,25.96
2018-09-12T09:52:03.521Z,26.01
2018-09-12T09:53:03.587Z,26.13
2018-09-12T09:54:03.651Z,26.13
2018-09-12T09:55:03.738Z,26.19
2018-09-12T09:56:03.785Z,26.32
2018-09-12T09:57:03.850Z,26.28
2018-09-12T09:58:04.339Z,26.41
2018-09-12T09:59:03.983Z,26.34
2018-09-12T10:00:04.052Z,26.36
2018-09-12T10:01:04.114Z,26.32
2018-09-12T10:02:04.197Z,26.29
2018-09-12T10:03:04.245Z,26.39
2018-09-12T10:04:04.365Z,26.44
2018-09-12T10:05:04.378Z,26.44
2018-09-12T10:06:04.497Z,26.41
2018-09-12T10:07:04.509Z,26.42
2018-09-12T10:08:04.580Z,26.50
2018-09-12T10:09:04.957Z,26.69
2018-09-12T10:10:04.709Z,26.72
2018-09-12T10:11:04.775Z,26.81
2018-09-12T10:12:04.842Z,26.87
2018-09-12T10:13:04.909Z,26.88
2018-09-12T10:14:04.972Z,26.87
2018-09-12T10:15:05.041Z,26.90
2018-09-12T10:16:05.113Z,26.91
2018-09-12T10:17:05.174Z,26.90
2018-09-12T10:18:05.240Z,26.88
2018-09-12T10:19:05.306Z,26.90
2018-09-12T10:20:05.373Z,26.93
2018-09-12T10:21:05.438Z,26.97
2018-09-12T10:22:05.504Z,27.05
2018-09-12T10:23:05.572Z,27.30
2018-09-12T10:24:05.644Z,27.21
2018-09-12T10:25:05.705Z,27.16
2018-09-12T10:26:05.772Z,27.31
2018-09-12T10:27:05.839Z,27.39
2018-09-12T10:28:05.905Z,27.38
2018-09-12T10:29:05.979Z,27.38
2018-09-12T10:30:06.039Z,27.39
2018-09-12T10:31:06.106Z,27.48
2018-09-12T10:32:06.172Z,27.72
2018-09-12T10:33:06.240Z,27.84
2018-09-12T10:34:06.306Z,27.81
2018-09-12T10:35:06.373Z,27.72
2018-09-12T10:36:06.441Z,27.80
2018-09-12T10:37:07.162Z,27.91
2018-09-12T10:38:06.574Z,27.95
2018-09-12T10:39:06.641Z,27.95
2018-09-12T10:40:06.709Z,28.06
2018-09-12T10:41:06.808Z,28.13
2018-09-12T10:42:06.843Z,28.05
2018-09-12T10:43:06.910Z,28.18
2018-09-12T10:44:06.978Z,28.28
2018-09-12T10:45:07.046Z,28.30
2018-09-12T10:46:07.112Z,27.99
2018-09-12T10:47:07.179Z,28.06
2018-09-12T10:48:07.249Z,28.33
2018-09-12T10:49:07.322Z,28.65
2018-09-12T10:50:07.387Z,28.89
2018-09-12T10:51:07.470Z,29.20
2018-09-12T10:52:07.524Z,29.60
2018-09-12T10:53:07.984Z,29.95
2018-09-12T10:54:07.666Z,30.34
2018-09-12T10:55:07.730Z,30.93
2018-09-12T10:56:07.801Z,31.07
2018-09-12T10:57:07.872Z,31.38
2018-09-12T10:58:07.940Z,31.49
2018-09-12T10:59:08.047Z,31.75
2018-09-12T11:00:08.099Z,31.59
2018-09-12T11:01:08.153Z,31.71
2018-09-12T11:02:08.222Z,31.67
2018-09-12T11:03:08.313Z,31.71
2018-09-12T11:04:08.414Z,31.82
2018-09-12T11:05:08.438Z,31.95
2018-09-12T11:06:08.509Z,32.03
2018-09-12T11:07:08.580Z,31.98
2018-09-12T11:08:08.652Z,32.13
2018-09-12T11:09:08.792Z,31.71
2018-09-12T11:10:08.798Z,32.06
2018-09-12T11:11:08.868Z,32.07
2018-09-12T11:12:08.941Z,32.09
2018-09-12T11:13:09.014Z,32.02
2018-09-12T11:14:09.086Z,31.57
2018-09-12T11:15:09.161Z,31.31
2018-09-12T11:16:09.231Z,31.31
2018-09-12T11:17:09.302Z,30.98
2018-09-12T11:18:09.374Z,31.37
2018-09-12T11:19:09.448Z,31.62
2018-09-12T11:20:09.520Z,31.35
2018-09-12T11:21:09.592Z,31.13
2018-09-12T11:22:09.665Z,31.13
2018-09-12T11:23:09.738Z,31.54
2018-09-12T11:24:09.811Z,31.85
2018-09-12T11:25:09.884Z,31.98
2018-09-12T11:26:09.956Z,31.95
2018-09-12T11:27:10.029Z,32.27
2018-09-12T11:28:10.102Z,32.21
2018-09-12T11:29:10.174Z,32.53
2018-09-12T11:30:10.247Z,32.53
2018-09-12T11:31:10.321Z,32.34
2018-09-12T11:32:10.393Z,32.14
2018-09-12T11:33:10.464Z,32.27
2018-09-12T11:34:10.556Z,32.12
2018-09-12T11:35:10.623Z,32.51
2018-09-12T11:36:10.683Z,32.76
2018-09-12T11:37:10.760Z,32.63
2018-09-12T11:38:10.827Z,31.57
2018-09-12T11:39:10.905Z,31.84
2018-09-12T11:40:11.013Z,31.92
2018-09-12T11:41:11.049Z,32.25
2018-09-12T11:42:11.120Z,32.78
2018-09-12T11:43:11.195Z,32.46
2018-09-12T11:44:11.833Z,33.07
2018-09-12T11:45:11.941Z,33.20
2018-09-12T11:46:12.060Z,33.35
2018-09-12T11:47:12.026Z,33.12
2018-09-12T11:48:12.143Z,33.29
2018-09-12T11:49:12.376Z,32.39
2018-09-12T11:50:12.607Z,32.76
2018-09-12T11:51:12.373Z,32.73
2018-09-12T11:52:11.849Z,32.19
2018-09-12T11:53:11.923Z,31.56
2018-09-12T11:54:11.996Z,31.78
2018-09-12T11:55:12.073Z,32.09
2018-09-12T11:56:12.142Z,32.05
2018-09-12T11:57:12.215Z,32.13
2018-09-12T11:58:12.288Z,32.40
2018-09-12T11:59:12.361Z,32.68
2018-09-12T12:00:12.435Z,32.95
2018-09-12T12:01:12.507Z,32.71
2018-09-12T12:02:12.642Z,32.73
2018-09-12T12:03:12.652Z,32.54
2018-09-12T12:04:12.728Z,32.76
2018-09-12T12:05:12.799Z,33.00
2018-09-12T12:06:12.966Z,33.40
2018-09-12T12:07:12.945Z,33.53
2018-09-12T12:08:13.018Z,33.81
2018-09-12T12:09:13.092Z,33.99
2018-09-12T12:10:13.164Z,34.31
2018-09-12T12:11:13.240Z,33.78
2018-09-12T12:12:13.311Z,33.86
2018-09-12T12:13:13.384Z,34.24
2018-09-12T12:14:13.456Z,33.94
2018-09-12T12:15:13.598Z,33.50
2018-09-12T12:16:13.604Z,33.78
2018-09-12T12:17:13.682Z,34.08
2018-09-12T12:18:13.749Z,33.38
2018-09-12T12:19:13.824Z,33.68
2018-09-12T12:20:13.898Z,33.22
2018-09-12T12:21:13.974Z,33.45
2018-09-12T12:22:14.047Z,33.79
2018-09-12T12:23:14.143Z,33.89
2018-09-12T12:24:14.192Z,33.93
2018-09-12T12:25:14.266Z,33.53
2018-09-12T12:26:14.339Z,33.43
2018-09-12T12:27:14.416Z,33.55
2018-09-12T12:28:14.488Z,33.47
2018-09-12T12:29:14.562Z,33.50
2018-09-12T12:30:14.635Z,33.71
2018-09-12T12:31:14.709Z,33.55
2018-09-12T12:32:14.781Z,33.56
2018-09-12T12:33:15.386Z,33.94
2018-09-12T12:34:15.499Z,33.60
2018-09-12T12:35:15.830Z,33.52
2018-09-12T12:36:15.641Z,34.18
2018-09-12T12:37:15.151Z,34.75
2018-09-12T12:38:15.223Z,35.32
2018-09-12T12:39:15.297Z,34.94
2018-09-12T12:40:15.370Z,34.80
2018-09-12T12:41:15.489Z,35.42
2018-09-12T12:42:15.517Z,34.91
2018-09-12T12:43:15.593Z,35.27
2018-09-12T12:44:15.666Z,35.15
2018-09-12T12:45:15.990Z,34.38
2018-09-12T12:46:15.813Z,34.05
2018-09-12T12:47:15.888Z,33.90
2018-09-12T12:48:15.962Z,33.56
2018-09-12T12:49:16.037Z,33.74
2018-09-12T12:50:16.112Z,34.11
2018-09-12T12:51:16.185Z,34.93
2018-09-12T12:52:16.262Z,35.59
2018-09-12T12:53:16.334Z,35.77
2018-09-12T12:54:16.989Z,35.62
2018-09-12T12:55:16.483Z,35.40
2018-09-12T12:56:16.555Z,35.69
2018-09-12T12:57:16.629Z,35.62
2018-09-12T12:58:16.706Z,35.93
2018-09-12T12:59:16.778Z,36.08
2018-09-12T13:00:16.852Z,34.95